createdAt,value
2022-11-29T04:02:57.345Z,12.88
2022-11-29T04:05:44.781Z,14.13
2022-11-29T04:08:49.272Z,13.50
2022-11-29T04:11:59.712Z,14.10
2022-11-29T04:14:51.626Z,14.00
2022-11-29T04:18:06.229Z,13.70
2022-11-29T04:20:57.642Z,13.27
2022-11-29T04:23:59.724Z,13.47
2022-11-29T04:27:13.550Z,13.33
2022-11-29T04:30:04.867Z,13.37
2022-11-29T04:33:00.093Z,16.03
2022-11-29T04:35:38.826Z,17.00
2022-11-29T04:38:38.982Z,16.57
2022-11-29T04:41:22.423Z,12.97
2022-11-29T04:44:01.161Z,14.53
2022-11-29T04:46:48.303Z,15.20
2022-11-29T04:49:36.699Z,15.10
2022-11-29T04:52:23.737Z,12.90
2022-11-29T04:55:00.884Z,14.43
2022-11-29T04:57:36.880Z,13.43
2022-11-29T05:00:09.877Z,14.90
2022-11-29T05:02:49.316Z,13.07
2022-11-29T05:05:28.084Z,12.98
2022-11-29T05:08:11.004Z,12.67
2022-11-29T05:10:45.560Z,12.37
2022-11-29T05:13:19.869Z,14.33
2022-11-29T05:16:06.607Z,14.20
2022-11-29T05:18:58.063Z,14.23
2022-11-29T05:21:34.218Z,15.13
2022-11-29T05:24:15.789Z,18.43
2022-11-29T05:26:53.256Z,15.07
2022-11-29T05:29:27.054Z,12.83
2022-11-29T05:32:04.602Z,15.87
2022-11-29T05:34:47.392Z,13.80
2022-11-29T05:37:26.257Z,13.48
2022-11-29T05:40:16.772Z,18.70
2022-11-29T05:43:10.830Z,13.55
2022-11-29T05:45:47.848Z,14.13
2022-11-29T05:48:25.512Z,13.20
2022-11-29T05:51:06.069Z,13.37
2022-11-29T05:53:42.594Z,13.57
2022-11-29T05:56:19.083Z,15.85
2022-11-29T05:58:52.199Z,13.73
2022-11-29T06:01:23.866Z,12.33
2022-11-29T06:04:02.909Z,12.23
2022-11-29T06:06:39.560Z,14.32
2022-11-29T06:09:16.085Z,18.52
2022-11-29T06:11:48.178Z,15.77
2022-11-29T06:14:36.901Z,21.25
2022-11-29T06:17:26.341Z,21.77
2022-11-29T06:20:04.210Z,15.93
2022-11-29T06:22:47.422Z,18.50
2022-11-29T06:25:30.561Z,12.73
2022-11-29T06:28:24.024Z,11.10
2022-11-29T06:31:02.032Z,12.02
2022-11-29T06:33:37.722Z,11.57
2022-11-29T06:36:15.022Z,12.57
2022-11-29T06:38:43.485Z,12.00
2022-11-29T06:41:18.197Z,11.57
2022-11-29T06:43:48.756Z,12.10
2022-11-29T06:46:27.817Z,14.40
2022-11-29T06:49:03.697Z,15.27
2022-11-29T06:51:38.741Z,12.23
2022-11-29T06:54:17.197Z,12.73
2022-11-29T06:56:52.379Z,12.00
2022-11-29T06:59:36.571Z,12.10
2022-11-29T07:02:18.545Z,14.65
2022-11-29T07:05:01.839Z,13.25
2022-11-29T07:07:30.265Z,12.95
2022-11-29T07:09:59.584Z,16.87
2022-11-29T07:12:28.027Z,18.47
2022-11-29T07:14:58.674Z,15.77
2022-11-29T07:17:31.881Z,24.98
2022-11-29T07:20:18.303Z,21.40
2022-11-29T07:22:57.130Z,24.50
2022-11-29T07:25:33.272Z,22.90
2022-11-29T07:28:12.635Z,23.27
2022-11-29T07:30:49.309Z,25.33
2022-11-29T07:33:23.437Z,29.30
2022-11-29T07:36:00.733Z,37.10
2022-11-29T07:38:46.817Z,27.20
2022-11-29T07:41:19.608Z,18.80
2022-11-29T07:43:57.365Z,19.60
2022-11-29T07:46:28.454Z,24.00
2022-11-29T07:48:56.355Z,24.40
2022-11-29T07:51:24.232Z,21.75
2022-11-29T07:53:52.098Z,19.58
2022-11-29T07:56:19.949Z,14.80
2022-11-29T07:58:47.963Z,17.97
2022-11-29T08:01:15.857Z,37.13
2022-11-29T08:03:45.179Z,14.68
2022-11-29T08:06:13.127Z,22.67
2022-11-29T08:08:44.213Z,13.40
2022-11-29T08:11:13.636Z,12.50
2022-11-29T08:13:41.518Z,10.88
2022-11-29T08:16:09.804Z,10.70
2022-11-29T08:18:37.827Z,10.43
2022-11-29T08:21:08.864Z,10.27
2022-11-29T08:23:36.765Z,11.15
2022-11-29T08:26:08.596Z,9.80
2022-11-29T08:28:36.425Z,10.30
2022-11-29T08:31:08.917Z,10.18
2022-11-29T08:33:44.572Z,10.00
2022-11-29T08:36:15.865Z,10.02
2022-11-29T08:38:44.057Z,10.02
2022-11-29T08:41:14.827Z,10.80
2022-11-29T08:43:43.369Z,11.15
2022-11-29T08:46:18.277Z,10.40
2022-11-29T08:48:47.097Z,10.13
2022-11-29T08:51:16.727Z,14.30
2022-11-29T08:53:44.593Z,14.48
2022-11-29T08:56:59.656Z,12.20
2022-11-29T08:59:02.472Z,14.10
2022-11-29T09:01:30.464Z,16.88
2022-11-29T09:04:03.492Z,13.95
2022-11-29T09:06:34.693Z,13.68
2022-11-29T09:09:02.678Z,12.30
2022-11-29T09:11:35.180Z,10.10
2022-11-29T09:14:06.237Z,12.18
2022-11-29T09:16:36.043Z,11.52
2022-11-29T09:19:04.365Z,10.48
2022-11-29T09:21:36.602Z,10.32
2022-11-29T09:24:07.902Z,10.23
2022-11-29T09:26:37.863Z,11.85
2022-11-29T09:29:07.660Z,9.93
2022-11-29T09:31:36.416Z,10.27
2022-11-29T09:34:04.532Z,9.93
2022-11-29T09:36:33.782Z,9.88
2022-11-29T09:39:03.606Z,9.77
2022-11-29T09:41:54.273Z,10.77
2022-11-29T09:44:35.477Z,10.00
2022-11-29T09:47:19.711Z,9.75
2022-11-29T09:49:59.442Z,10.52
2022-11-29T09:52:43.741Z,10.10
2022-11-29T09:55:29.637Z,10.30
2022-11-29T09:58:00.498Z,10.30
2022-11-29T10:00:30.385Z,9.95
2022-11-29T10:03:02.448Z,10.57
2022-11-29T10:05:36.396Z,10.30
2022-11-29T10:08:10.763Z,10.18
2022-11-29T10:10:44.158Z,10.60
2022-11-29T10:13:19.893Z,9.15
2022-11-29T10:15:54.025Z,9.95
2022-11-29T10:18:26.964Z,9.55
2022-11-29T10:20:58.595Z,9.38
2022-11-29T10:23:33.742Z,9.52
2022-11-29T10:26:01.735Z,9.57
2022-11-29T10:28:32.901Z,9.55
2022-11-29T10:31:13.952Z,8.68
2022-11-29T10:33:42.875Z,8.98
2022-11-29T10:36:21.533Z,9.57
2022-11-29T10:38:53.274Z,9.40
2022-11-29T10:41:23.703Z,9.35
2022-11-29T10:43:52.882Z,9.02
2022-11-29T10:46:29.076Z,9.30
2022-11-29T10:48:58.830Z,8.77
2022-11-29T10:51:26.890Z,11.27
2022-11-29T10:53:57.648Z,9.63
2022-11-29T10:56:29.538Z,10.50
2022-11-29T10:59:03.010Z,9.70
2022-11-29T11:01:32.369Z,9.18
2022-11-29T11:04:04.160Z,10.02
2022-11-29T11:06:44.789Z,9.55
2022-11-29T11:09:20.509Z,9.75
2022-11-29T11:11:52.966Z,9.73
2022-11-29T11:14:23.613Z,9.15
2022-11-29T11:16:51.879Z,9.70
2022-11-29T11:19:28.644Z,10.20
2022-11-29T11:21:59.602Z,9.32
2022-11-29T11:24:31.390Z,10.50
2022-11-29T11:27:00.185Z,10.63
2022-11-29T11:29:38.299Z,9.98
2022-11-29T11:32:08.743Z,9.75
2022-11-29T11:34:37.917Z,10.23
2022-11-29T11:37:21.878Z,11.02
2022-11-29T11:39:53.214Z,10.27
2022-11-29T11:42:40.480Z,10.45
2022-11-29T11:45:28.384Z,10.63
2022-11-29T11:47:58.608Z,14.82
2022-11-29T11:50:30.345Z,13.00
2022-11-29T11:53:00.823Z,12.18
2022-11-29T11:55:37.264Z,11.10
2022-11-29T11:58:16.602Z,11.60
2022-11-29T12:01:04.702Z,12.55
2022-11-29T12:03:44.801Z,12.00
2022-11-29T12:06:35.172Z,10.60
2022-11-29T12:09:10.742Z,11.90
2022-11-29T12:11:46.930Z,10.68
2022-11-29T12:14:25.070Z,10.30
2022-11-29T12:16:59.794Z,10.80
2022-11-29T12:19:35.326Z,10.77
2022-11-29T12:22:08.957Z,11.35
2022-11-29T12:24:42.350Z,11.07
2022-11-29T12:27:14.355Z,11.18
2022-11-29T12:29:42.395Z,11.48
2022-11-29T12:32:37.247Z,11.35
2022-11-29T12:35:34.848Z,11.48
2022-11-29T12:38:13.005Z,12.60
2022-11-29T12:40:48.227Z,13.02
2022-11-29T12:43:29.145Z,15.38
2022-11-29T12:46:04.897Z,14.52
2022-11-29T12:48:40.473Z,13.30
2022-11-29T12:51:14.915Z,13.18
2022-11-29T12:53:56.891Z,12.35
2022-11-29T12:56:28.293Z,11.75
2022-11-29T12:59:10.448Z,11.45
2022-11-29T13:01:57.748Z,10.52
2022-11-29T13:04:30.516Z,9.90
2022-11-29T13:07:05.796Z,9.70
2022-11-29T13:10:04.444Z,10.23
2022-11-29T13:12:38.719Z,9.70
2022-11-29T13:15:15.626Z,9.82
2022-11-29T13:17:53.181Z,9.85
2022-11-29T13:20:31.824Z,9.43
2022-11-29T13:23:05.705Z,10.77
2022-11-29T13:25:38.173Z,11.80
2022-11-29T13:28:08.674Z,11.35
2022-11-29T13:30:39.541Z,10.50
2022-11-29T13:33:17.029Z,9.98
2022-11-29T13:35:52.101Z,10.65
2022-11-29T13:38:25.714Z,10.55
2022-11-29T13:40:59.119Z,10.10
2022-11-29T13:43:36.141Z,9.15
2022-11-29T13:46:17.071Z,9.45
2022-11-29T13:48:50.698Z,10.05
2022-11-29T13:51:31.526Z,9.00
2022-11-29T13:54:01.852Z,9.55
2022-11-29T13:56:42.683Z,10.13
2022-11-29T13:59:18.372Z,11.02
2022-11-29T14:01:50.322Z,11.32
2022-11-29T14:04:31.155Z,11.07
2022-11-29T14:07:20.011Z,11.30
2022-11-29T14:09:58.201Z,10.48
2022-11-29T14:12:36.980Z,10.98
2022-11-29T14:15:17.623Z,13.32
2022-11-29T14:17:53.551Z,11.52
2022-11-29T14:20:58.986Z,12.13
2022-11-29T14:23:36.195Z,15.45
2022-11-29T14:26:32.561Z,13.35
2022-11-29T14:29:01.145Z,12.95
2022-11-29T14:31:51.395Z,15.75
2022-11-29T14:34:32.580Z,15.20
2022-11-29T14:37:07.811Z,14.63
2022-11-29T14:39:43.389Z,15.70
2022-11-29T14:42:16.925Z,14.63
2022-11-29T14:44:47.846Z,11.30
2022-11-29T14:47:23.970Z,11.00
2022-11-29T14:49:56.491Z,10.85
2022-11-29T14:52:29.351Z,9.88
2022-11-29T14:55:10.449Z,9.88
2022-11-29T14:57:53.951Z,9.75
2022-11-29T15:00:24.245Z,9.50
2022-11-29T15:02:57.768Z,9.85
2022-11-29T15:05:33.661Z,9.45
2022-11-29T15:08:10.371Z,8.23
2022-11-29T15:10:42.236Z,9.70
2022-11-29T15:13:14.924Z,9.25
2022-11-29T15:16:09.464Z,10.13
2022-11-29T15:19:05.945Z,10.07
2022-11-29T15:21:43.322Z,9.60
2022-11-29T15:24:13.208Z,8.70
2022-11-29T15:26:54.749Z,9.48
2022-11-29T15:29:22.592Z,8.68
2022-11-29T15:31:54.064Z,9.00
2022-11-29T15:34:33.183Z,8.07
2022-11-29T15:37:02.777Z,7.25
2022-11-29T15:39:33.823Z,7.20
2022-11-29T15:42:03.986Z,12.00
2022-11-29T15:44:33.597Z,11.02
2022-11-29T15:47:21.942Z,6.82
2022-11-29T15:49:50.116Z,11.48
2022-11-29T15:52:28.013Z,13.75
2022-11-29T15:55:00.193Z,18.42
2022-11-29T15:57:34.757Z,13.52
2022-11-29T16:00:05.288Z,11.68
2022-11-29T16:02:35.515Z,35.40
2022-11-29T16:05:10.978Z,27.70
2022-11-29T16:07:41.022Z,25.83
2022-11-29T16:10:15.664Z,24.63
2022-11-29T16:12:53.574Z,19.58
2022-11-29T16:15:31.971Z,15.18
2022-11-29T16:18:05.036Z,13.88
2022-11-29T16:20:33.147Z,12.65
2022-11-29T16:23:12.281Z,11.52
2022-11-29T16:25:57.111Z,11.88
2022-11-29T16:28:27.826Z,11.70
2022-11-29T16:30:55.783Z,11.90
2022-11-29T16:33:25.510Z,13.48
2022-11-29T16:36:04.850Z,13.75
2022-11-29T16:38:34.314Z,13.18
2022-11-29T16:41:05.754Z,13.05
2022-11-29T16:43:54.022Z,14.27
2022-11-29T16:46:43.320Z,13.90
2022-11-29T16:49:34.617Z,12.80
2022-11-29T16:52:03.389Z,11.80
2022-11-29T16:54:34.743Z,12.00
2022-11-29T16:57:06.075Z,11.65
2022-11-29T16:59:35.201Z,15.57
2022-11-29T17:02:03.127Z,15.18
2022-11-29T17:04:31.062Z,14.27
2022-11-29T17:06:58.986Z,13.85
2022-11-29T17:09:28.429Z,14.00
2022-11-29T17:11:59.767Z,13.43
2022-11-29T17:14:28.149Z,12.73
2022-11-29T17:16:56.568Z,12.07
2022-11-29T17:19:24.879Z,11.75
2022-11-29T17:21:53.498Z,11.90
2022-11-29T17:24:23.337Z,12.07
2022-11-29T17:26:51.916Z,12.00
2022-11-29T17:29:21.142Z,11.43
2022-11-29T17:31:50.402Z,10.93
2022-11-29T17:34:18.822Z,10.55
2022-11-29T17:36:47.483Z,11.57
2022-11-29T17:39:19.354Z,12.45
2022-11-29T17:41:47.361Z,11.95
2022-11-29T17:44:15.214Z,12.25
2022-11-29T17:46:44.510Z,13.35
2022-11-29T17:49:12.369Z,12.93
2022-11-29T17:51:56.999Z,13.18
2022-11-29T17:54:24.922Z,11.82
2022-11-29T17:56:53.191Z,12.02
2022-11-29T17:59:21.036Z,12.07
2022-11-29T18:01:50.331Z,25.70
2022-11-29T18:04:22.446Z,30.92
2022-11-29T18:06:50.668Z,34.15
2022-11-29T18:09:19.614Z,32.47
2022-11-29T18:11:50.342Z,20.38
2022-11-29T18:14:20.201Z,20.45
2022-11-29T18:16:48.246Z,18.38
2022-11-29T18:19:19.100Z,16.30
2022-11-29T18:21:47.622Z,14.10
2022-11-29T18:24:15.490Z,14.52
2022-11-29T18:26:43.597Z,15.95
2022-11-29T18:29:11.481Z,17.33
2022-11-29T18:31:41.785Z,15.65
2022-11-29T18:34:11.293Z,15.75
2022-11-29T18:36:43.408Z,13.82
2022-11-29T18:39:14.015Z,13.80
2022-11-29T18:41:43.495Z,13.40
2022-11-29T18:44:12.808Z,12.68
2022-11-29T18:46:42.889Z,12.85
2022-11-29T18:49:12.959Z,12.90
2022-11-29T18:51:44.621Z,12.57
2022-11-29T18:54:14.779Z,13.90
2022-11-29T18:56:43.948Z,13.73
2022-11-29T18:59:14.615Z,13.20
2022-11-29T19:01:44.994Z,14.00
2022-11-29T19:04:16.407Z,16.48
2022-11-29T19:06:45.950Z,21.45
2022-11-29T19:09:15.879Z,23.17
2022-11-29T19:11:44.049Z,19.05
2022-11-29T19:14:13.939Z,17.50
2022-11-29T19:16:43.896Z,14.25
2022-11-29T19:19:12.594Z,14.10
2022-11-29T19:21:40.955Z,11.23
2022-11-29T19:24:17.663Z,12.32
2022-11-29T19:26:47.677Z,14.30
2022-11-29T19:29:17.143Z,24.98
2022-11-29T19:31:46.069Z,15.30
2022-11-29T19:34:14.039Z,14.32
2022-11-29T19:36:44.135Z,14.30
2022-11-29T19:39:16.478Z,13.02
2022-11-29T19:41:46.464Z,13.90
2022-11-29T19:44:14.578Z,14.23
2022-11-29T19:46:45.538Z,13.82
2022-11-29T19:49:13.830Z,14.20
2022-11-29T19:51:42.071Z,15.07
2022-11-29T19:54:11.720Z,13.77
2022-11-29T19:56:41.155Z,15.18
2022-11-29T19:59:09.931Z,15.90
2022-11-29T20:01:41.214Z,16.63
2022-11-29T20:04:11.400Z,17.50
2022-11-29T20:06:39.556Z,16.10
2022-11-29T20:09:07.496Z,16.25
2022-11-29T20:11:35.703Z,15.50
2022-11-29T20:14:06.826Z,15.40
2022-11-29T20:16:35.144Z,15.02
2022-11-29T20:19:03.032Z,14.95
2022-11-29T20:21:32.640Z,14.43
2022-11-29T20:24:03.330Z,21.95
2022-11-29T20:26:33.123Z,16.42
2022-11-29T20:29:02.698Z,15.63
2022-11-29T20:31:33.890Z,14.45
2022-11-29T20:34:02.254Z,14.68
2022-11-29T20:36:43.812Z,13.90
2022-11-29T20:39:28.534Z,15.00
2022-11-29T20:42:18.662Z,14.32
2022-11-29T20:44:52.865Z,14.90
2022-11-29T20:47:24.413Z,16.85
2022-11-29T20:49:52.831Z,16.65
2022-11-29T20:52:34.186Z,15.73
2022-11-29T20:55:02.012Z,16.17
2022-11-29T20:57:29.972Z,15.75
2022-11-29T20:59:57.894Z,15.05
2022-11-29T21:02:27.170Z,15.07
2022-11-29T21:04:55.053Z,15.68
2022-11-29T21:07:22.939Z,16.83
2022-11-29T21:09:50.960Z,16.40
2022-11-29T21:12:20.480Z,15.95
2022-11-29T21:14:48.995Z,15.25
2022-11-29T21:17:17.360Z,14.57
2022-11-29T21:19:47.188Z,13.00
2022-11-29T21:22:22.801Z,14.20
2022-11-29T21:24:57.853Z,14.13
2022-11-29T21:27:30.854Z,15.52
2022-11-29T21:29:59.359Z,15.25
2022-11-29T21:32:28.620Z,15.05
2022-11-29T21:34:57.875Z,17.10
2022-11-29T21:37:28.492Z,16.02
2022-11-29T21:39:57.156Z,16.33
2022-11-29T21:42:25.069Z,15.95
2022-11-29T21:44:53.128Z,16.50
2022-11-29T21:47:21.415Z,15.60
2022-11-29T21:49:51.426Z,15.23
2022-11-29T21:52:22.779Z,16.50
2022-11-29T21:54:51.233Z,15.75
2022-11-29T21:57:20.132Z,16.63
2022-11-29T21:59:47.992Z,16.27
2022-11-29T22:02:17.125Z,16.70
2022-11-29T22:04:45.459Z,17.05
2022-11-29T22:07:15.120Z,16.40
2022-11-29T22:09:44.397Z,16.75
2022-11-29T22:12:32.461Z,15.45
2022-11-29T22:15:00.250Z,15.32
2022-11-29T22:17:28.075Z,15.60
2022-11-29T22:19:56.080Z,28.33
2022-11-29T22:22:27.184Z,39.45
2022-11-29T22:24:57.375Z,24.45
2022-11-29T22:27:25.226Z,26.42
2022-11-29T22:29:53.072Z,21.63
2022-11-29T22:32:21.188Z,17.35
2022-11-29T22:34:49.204Z,22.00
2022-11-29T22:37:17.166Z,19.27
2022-11-29T22:39:45.123Z,18.17
2022-11-29T22:42:14.323Z,15.48
2022-11-29T22:44:42.164Z,14.90
2022-11-29T22:47:10.098Z,15.50
2022-11-29T22:49:38.238Z,15.45
2022-11-29T22:52:06.342Z,15.18
2022-11-29T22:54:34.184Z,16.13
2022-11-29T22:57:02.019Z,15.38
2022-11-29T22:59:31.237Z,17.63
